createdAt,value
2018-11-20T00:09:19.604Z,50.5
2018-11-20T00:19:18.752Z,51.1
2018-11-20T00:29:17.960Z,51.8
2018-11-20T00:39:17.171Z,52.4
2018-11-20T00:49:16.373Z,53.1
2018-11-20T00:59:15.579Z,53.8
2018-11-20T01:09:14.789Z,54.5
2018-11-20T01:19:13.986Z,55.2
2018-11-20T01:29:13.191Z,55.9
2018-11-20T01:39:12.403Z,56.6
2018-11-20T01:49:11.605Z,57.3
2018-11-20T01:59:10.813Z,58.1
2018-11-20T02:09:10.018Z,58.9
2018-11-20T02:19:09.228Z,59.6
2018-11-20T02:29:08.427Z,60.2
2018-11-20T02:39:07.632Z,60.1
2018-11-20T02:49:06.832Z,60.1
2018-11-20T02:59:06.042Z,60.1
2018-11-20T03:09:05.249Z,60.3
2018-11-20T03:19:04.444Z,60.1
2018-11-20T03:29:03.651Z,60.1
2018-11-20T03:39:02.859Z,59.1
2018-11-20T03:49:02.073Z,54.6
2018-11-20T03:59:01.267Z,54.1
2018-11-20T04:09:00.477Z,53.4
2018-11-20T04:18:59.680Z,52.8
2018-11-20T04:28:58.896Z,51.3
2018-11-20T04:38:58.096Z,48.9
2018-11-20T04:48:57.306Z,48.1
2018-11-20T04:58:56.513Z,48.2
2018-11-20T05:08:55.715Z,46.9
2018-11-20T05:18:54.938Z,46.1
2018-11-20T05:28:54.142Z,45.8
2018-11-20T05:38:53.345Z,45.4
2018-11-20T05:48:52.553Z,45.6
2018-11-20T05:58:51.762Z,45.9
2018-11-20T06:08:50.968Z,45.9
2018-11-20T06:18:50.238Z,46.1
2018-11-20T06:28:49.505Z,46.2
2018-11-20T06:38:48.584Z,46.3
2018-11-20T06:48:47.787Z,46.4
2018-11-20T06:58:46.996Z,46.5
2018-11-20T07:08:46.238Z,46.6
2018-11-20T07:18:45.423Z,46.6
2018-11-20T07:28:44.620Z,46.7
2018-11-20T07:38:43.836Z,46.8
2018-11-20T07:48:43.045Z,46.9
2018-11-20T07:58:42.248Z,46.9
2018-11-20T08:08:41.611Z,46.9
2018-11-20T08:18:41.382Z,47
2018-11-20T08:28:40.610Z,47
2018-11-20T08:38:39.789Z,47.1
2018-11-20T08:48:39.001Z,47.1
2018-11-20T08:58:38.199Z,47.1
2018-11-20T09:08:37.405Z,47.2
2018-11-20T09:18:36.607Z,47.3
2018-11-20T09:28:35.845Z,47.3
2018-11-20T09:38:35.049Z,47.3
2018-11-20T09:48:34.258Z,47.4
2018-11-20T09:58:33.462Z,47.4
2018-11-20T10:08:32.684Z,47.5
2018-11-20T10:18:31.883Z,47.6
2018-11-20T10:28:31.087Z,47.8
2018-11-20T10:38:30.301Z,47.9
2018-11-20T10:48:29.505Z,47.9
2018-11-20T10:58:28.708Z,48.1
2018-11-20T11:08:27.917Z,47.9
2018-11-20T11:18:27.165Z,47.8
2018-11-20T11:28:26.389Z,47.8
2018-11-20T11:38:25.548Z,48.1
2018-11-20T11:48:24.752Z,48.3
2018-11-20T11:58:23.957Z,48.4
2018-11-20T12:08:23.163Z,48.5
2018-11-20T12:18:22.374Z,48.6
2018-11-20T12:28:21.582Z,48.8
2018-11-20T12:38:20.790Z,48.8
2018-11-20T12:48:22.307Z,48.9
2018-11-20T12:58:19.205Z,49
2018-11-20T13:08:18.412Z,49.1
2018-11-20T13:18:17.626Z,49.1
2018-11-20T13:28:16.825Z,49.1
2018-11-20T13:38:16.037Z,49.1
2018-11-20T13:48:15.242Z,48.9
2018-11-20T13:58:14.449Z,48.9
2018-11-20T14:08:13.656Z,48.9
2018-11-20T14:18:12.868Z,48.9
2018-11-20T14:28:14.174Z,48.9
2018-11-20T14:38:11.277Z,48.8
2018-11-20T14:48:10.539Z,48.8
2018-11-20T14:58:09.689Z,48.8
2018-11-20T15:08:08.896Z,48.8
2018-11-20T15:18:08.109Z,48.8
2018-11-20T15:28:07.320Z,48.8
2018-11-20T15:38:06.523Z,48.8
2018-11-20T15:48:05.726Z,48.5
2018-11-20T15:58:04.929Z,48.5
2018-11-20T16:08:04.141Z,48.1
2018-11-20T16:18:03.399Z,48.1
2018-11-20T16:28:02.558Z,48.1
2018-11-20T16:38:01.813Z,48.1
2018-11-20T16:48:00.972Z,48
2018-11-20T16:58:00.182Z,48
2018-11-20T17:07:59.384Z,47.9
2018-11-20T17:17:58.592Z,47.3
2018-11-20T17:27:57.800Z,45.8
2018-11-20T17:37:57.013Z,45.7
2018-11-20T17:47:56.220Z,45.7
2018-11-20T17:57:57.091Z,45.4
2018-11-20T18:07:56.105Z,45.4
2018-11-20T18:17:53.852Z,45.3
2018-11-20T18:27:53.054Z,44.8
2018-11-20T18:37:52.261Z,44.5
2018-11-20T18:47:51.518Z,44.6
2018-11-20T18:57:50.674Z,44
2018-11-20T19:07:49.892Z,44.1
2018-11-20T19:17:49.100Z,43.9
2018-11-20T19:27:48.318Z,43.9
2018-11-20T19:37:47.533Z,41.4
2018-11-20T19:47:46.753Z,41.9
2018-11-20T19:57:45.977Z,41.9
2018-11-20T20:07:45.175Z,42.1
2018-11-20T20:17:44.375Z,42.7
2018-11-20T20:27:43.594Z,43.3
2018-11-20T20:37:42.809Z,43.4
2018-11-20T20:47:42.007Z,43.9
2018-11-20T20:57:41.214Z,44.6
2018-11-20T21:07:43.238Z,45.1
2018-11-20T21:17:39.630Z,45.8
2018-11-20T21:27:38.840Z,46.3
2018-11-20T21:37:38.045Z,46.9
2018-11-20T21:47:37.255Z,47.6
2018-11-20T21:57:36.463Z,48.2
2018-11-20T22:07:35.667Z,48.8
2018-11-20T22:17:34.883Z,49.3
2018-11-20T22:27:34.088Z,49.9
2018-11-20T22:37:33.293Z,50.6
2018-11-20T22:47:32.505Z,51.3
2018-11-20T22:57:31.711Z,51.9
2018-11-20T23:07:30.919Z,52.6
2018-11-20T23:17:30.129Z,53.3
2018-11-20T23:27:29.330Z,53.9
2018-11-20T23:37:28.539Z,54.6
2018-11-20T23:47:27.744Z,55.2
2018-11-20T23:57:26.965Z,55.9
